Terminal Aerodrome Forecast
Issued by NWS Wilmington, OH

Current Version | Previous Version | Text Only | Print | Product List | Glossary Off
Versions: 1 2 3 4 5 6 7 8 9 10 11 12 13 14 15 16 17 18 19 20 21 22 23 24 25 26 27 28 29 30 31

080
FTUS41 KILN 240540
TAFILN
TAF
KILN 240540Z 2406/2506 03005KT P6SM OVC012
     FM241000 02007KT 5SM BR VCSH OVC012
     FM241200 04008KT 4SM -RA OVC015
      TEMPO 2414/2417 2SM -RA OVC008
     FM241900 09010KT P6SM VCSH OVC022
     FM250200 14013KT 5SM -SHRA BR SCT012 OVC020=

USA.gov is the U.S. government's official web portal to all federal, state and local government web resources and services.